Sedov — UELO — position and weather

sailwx.info

Track history (hours):
 
Tides and Currents Weather Stations Pressure Air Temp Water Temp Dewpoint Dewpoint Depression Visibility Wind Speed Wind Dir Waves Ship Positions

Sedov (Russia)

Last reported at 2016-Jul-28 22:25 UTC. Time now 2016-Jul-29 10:17 UTC.
Position N 53°33' E 008°34'.

Length 118 m; draft 6.4 m.

Type: Sailing vessel. MMSI: 273510000.

Date/timePositionNaut miles runAvg speedWind from/ knotsBaromVisibWave heightAir tempDewpointWater temp
2016-Jul-28 22:25N 53°33' E 008°34'0 0.0
2016-Jul-28 20:22N 53°33' E 008°34'0 0.0
2016-Jul-28 09:16N 53°33' E 008°34'0 0.0
2016-Jul-28 05:22N 53°33' E 008°34'0 0.0
2016-Jul-28 03:25N 53°33' E 008°34'0 0.0
2016-Jul-28 02:31N 53°33' E 008°34'0 0.0
2016-Jul-28 01:22N 53°33' E 008°34'6 0.5
2016-Jul-27 11:32N 53°38' E 008°28'7 5.6
2016-Jul-27 10:15N 53°42' E 008°19'4 5.6
2016-Jul-27 09:33N 53°44' E 008°13'4 4.3
2016-Jul-27 08:34N 53°48' E 008°08'4 3.7
2016-Jul-27 07:33N 53°50' E 008°04'6 5.5
2016-Jul-27 06:33N 53°52' E 007°55'7 6.5
2016-Jul-27 05:33N 53°53' E 007°44'6 6.2
2016-Jul-27 04:33N 53°58' E 007°37'6 5.7
2016-Jul-27 03:33N 54°03' E 007°33'4 4.4
2016-Jul-27 02:34N 54°07' E 007°29'7 6.9
2016-Jul-27 01:33N 54°13' E 007°23'8 7.6
2016-Jul-27 00:33N 54°20' E 007°18'7 7.5
2016-Jul-26 23:33N 54°26' E 007°12'7 7.2
2016-Jul-26 22:33N 54°33' E 007°08'6 6.4
2016-Jul-26 21:33N 54°39' E 007°04'0 0.2
2016-Jul-26 20:33N 54°39' E 007°04'0 0.4
2016-Jul-26 19:33N 54°39' E 007°05'1 0.5
2016-Jul-26 18:33N 54°38' E 007°05'0 0.4
2016-Jul-26 17:33N 54°38' E 007°06'0 0.2
2016-Jul-26 16:33N 54°38' E 007°06'1 1.2
2016-Jul-26 15:33N 54°39' E 007°06'1 0.8
2016-Jul-26 14:33N 54°39' E 007°05'2 1.6
2016-Jul-26 13:20N 54°41' E 007°03'2 1.9
2016-Jul-26 12:20N 54°42' E 007°00'1 1.7
2016-Jul-26 11:33N 54°43' E 006°59'3 2.9
2016-Jul-26 10:33N 54°46' E 006°56'3 3.5
2016-Jul-26 09:33N 54°49' E 006°54'4 4.0
2016-Jul-26 08:33N 54°53' E 006°51'4 4.2
2016-Jul-26 07:33N 54°57' E 006°48'4 4.2
2016-Jul-26 06:33N 55°00' E 006°46'5 4.8
2016-Jul-26 05:33N 55°05' E 006°42'6 5.8
2016-Jul-26 04:33N 55°10' E 006°39'6 5.9
2016-Jul-26 03:33N 55°16' E 006°37'7 6.9
2016-Jul-26 02:34N 55°23' E 006°37'6 5.9
2016-Jul-26 01:32N 55°29' E 006°39'28 1.2
2016-Jul-25 01:29N 55°56' E 006°27'1 0.7
2016-Jul-25 00:23N 55°56' E 006°25'1 0.9
2016-Jul-24 23:32N 55°56' E 006°24'2 0.2
2016-Jul-24 11:03N 55°53' E 006°25'1 1.5
2016-Jul-24 10:24N 55°54' E 006°25'  
2016-Jul-20 09:05N 57°43' E 009°03'4 6.5
2016-Jul-20 08:32N 57°44' E 009°09'14 6.5
2016-Jul-20 06:22N 57°48' E 009°35'5 6.6
2016-Jul-20 05:32N 57°49' E 009°45'19 6.3
2016-Jul-20 02:30N 57°51' E 010°21'7 5.9
2016-Jul-20 01:24N 57°51' E 010°33'6 6.7
2016-Jul-20 00:26N 57°51' E 010°45'7 7.1
2016-Jul-19 23:30N 57°47' E 010°55'7 7.8
2016-Jul-19 22:33N 57°42' E 011°04'8 7.8
2016-Jul-19 21:33N 57°36' E 011°14'8 7.6
2016-Jul-19 20:33N 57°30' E 011°23'7 7.5
2016-Jul-19 19:33N 57°24' E 011°30'8 7.8
2016-Jul-19 18:33N 57°16' E 011°34'8 7.9
2016-Jul-19 17:33N 57°09' E 011°39'8 7.6
2016-Jul-19 16:33N 57°02' E 011°44'7 7.2
2016-Jul-19 15:32N 56°55' E 011°48'7 7.0
2016-Jul-19 14:33N 56°48' E 011°52'7 7.2
2016-Jul-19 13:32N 56°41' E 011°50'8 8.3
2016-Jul-19 12:32N 56°34' E 011°42'79 6.6
2016-Jul-19 00:33N 55°18' E 011°03'8 6.5
2016-Jul-18 23:24N 55°10' E 011°04'6 7.0
2016-Jul-18 22:33N 55°04' E 011°03'  
Track history (hours):
 
Tides and Currents Weather Stations Pressure Air Temp Water Temp Dewpoint Dewpoint Depression Visibility Wind Speed Wind Dir Waves Ship Positions

Sedov (Russia)

Last reported at 2016-Jul-28 22:25 UTC. Time now 2016-Jul-29 10:17 UTC.
Position N 53°33' E 008°34'.

Length 118 m; draft 6.4 m.

Type: Sailing vessel. MMSI: 273510000.

Date/timePositionNaut miles runAvg speedWind from/ knotsBaromVisibWave heightAir tempDewpointWater temp
2016-Jul-28 22:25N 53°33' E 008°34'0 0.0
2016-Jul-28 20:22N 53°33' E 008°34'0 0.0
2016-Jul-28 09:16N 53°33' E 008°34'0 0.0
2016-Jul-28 05:22N 53°33' E 008°34'0 0.0
2016-Jul-28 03:25N 53°33' E 008°34'0 0.0
2016-Jul-28 02:31N 53°33' E 008°34'0 0.0
2016-Jul-28 01:22N 53°33' E 008°34'6 0.5
2016-Jul-27 11:32N 53°38' E 008°28'7 5.6
2016-Jul-27 10:15N 53°42' E 008°19'4 5.6
2016-Jul-27 09:33N 53°44' E 008°13'4 4.3
2016-Jul-27 08:34N 53°48' E 008°08'4 3.7
2016-Jul-27 07:33N 53°50' E 008°04'6 5.5
2016-Jul-27 06:33N 53°52' E 007°55'7 6.5
2016-Jul-27 05:33N 53°53' E 007°44'6 6.2
2016-Jul-27 04:33N 53°58' E 007°37'6 5.7
2016-Jul-27 03:33N 54°03' E 007°33'4 4.4
2016-Jul-27 02:34N 54°07' E 007°29'7 6.9
2016-Jul-27 01:33N 54°13' E 007°23'8 7.6
2016-Jul-27 00:33N 54°20' E 007°18'7 7.5
2016-Jul-26 23:33N 54°26' E 007°12'7 7.2
2016-Jul-26 22:33N 54°33' E 007°08'6 6.4
2016-Jul-26 21:33N 54°39' E 007°04'0 0.2
2016-Jul-26 20:33N 54°39' E 007°04'0 0.4
2016-Jul-26 19:33N 54°39' E 007°05'1 0.5
2016-Jul-26 18:33N 54°38' E 007°05'0 0.4
2016-Jul-26 17:33N 54°38' E 007°06'0 0.2
2016-Jul-26 16:33N 54°38' E 007°06'1 1.2
2016-Jul-26 15:33N 54°39' E 007°06'1 0.8
2016-Jul-26 14:33N 54°39' E 007°05'2 1.6
2016-Jul-26 13:20N 54°41' E 007°03'2 1.9
2016-Jul-26 12:20N 54°42' E 007°00'1 1.7
2016-Jul-26 11:33N 54°43' E 006°59'3 2.9
2016-Jul-26 10:33N 54°46' E 006°56'3 3.5
2016-Jul-26 09:33N 54°49' E 006°54'4 4.0
2016-Jul-26 08:33N 54°53' E 006°51'4 4.2
2016-Jul-26 07:33N 54°57' E 006°48'4 4.2
2016-Jul-26 06:33N 55°00' E 006°46'5 4.8
2016-Jul-26 05:33N 55°05' E 006°42'6 5.8
2016-Jul-26 04:33N 55°10' E 006°39'6 5.9
2016-Jul-26 03:33N 55°16' E 006°37'7 6.9
2016-Jul-26 02:34N 55°23' E 006°37'6 5.9
2016-Jul-26 01:32N 55°29' E 006°39'28 1.2
2016-Jul-25 01:29N 55°56' E 006°27'1 0.7
2016-Jul-25 00:23N 55°56' E 006°25'1 0.9
2016-Jul-24 23:32N 55°56' E 006°24'2 0.2
2016-Jul-24 11:03N 55°53' E 006°25'1 1.5
2016-Jul-24 10:24N 55°54' E 006°25'  
2016-Jul-20 09:05N 57°43' E 009°03'4 6.5
2016-Jul-20 08:32N 57°44' E 009°09'14 6.5
2016-Jul-20 06:22N 57°48' E 009°35'5 6.6
2016-Jul-20 05:32N 57°49' E 009°45'19 6.3
2016-Jul-20 02:30N 57°51' E 010°21'7 5.9
2016-Jul-20 01:24N 57°51' E 010°33'6 6.7
2016-Jul-20 00:26N 57°51' E 010°45'7 7.1
2016-Jul-19 23:30N 57°47' E 010°55'7 7.8
2016-Jul-19 22:33N 57°42' E 011°04'8 7.8
2016-Jul-19 21:33N 57°36' E 011°14'8 7.6
2016-Jul-19 20:33N 57°30' E 011°23'7 7.5
2016-Jul-19 19:33N 57°24' E 011°30'8 7.8
2016-Jul-19 18:33N 57°16' E 011°34'8 7.9
2016-Jul-19 17:33N 57°09' E 011°39'8 7.6
2016-Jul-19 16:33N 57°02' E 011°44'7 7.2
2016-Jul-19 15:32N 56°55' E 011°48'7 7.0
2016-Jul-19 14:33N 56°48' E 011°52'7 7.2
2016-Jul-19 13:32N 56°41' E 011°50'8 8.3
2016-Jul-19 12:32N 56°34' E 011°42'79 6.6
2016-Jul-19 00:33N 55°18' E 011°03'8 6.5
2016-Jul-18 23:24N 55°10' E 011°04'6 7.0
2016-Jul-18 22:33N 55°04' E 011°03'  

Dump ship's entire track history